sensor_id;sensor_type;location;lat;lon;timestamp;temperature;humidity
9971;DHT22;5026;51.494;11.974;2024-03-22T00:00:40;8.30;99.90
9971;DHT22;5026;51.494;11.974;2024-03-22T00:03:08;7.80;99.90
9971;DHT22;5026;51.494;11.974;2024-03-22T00:05:34;7.70;99.90
9971;DHT22;5026;51.494;11.974;2024-03-22T00:08:00;8.30;99.90
9971;DHT22;5026;51.494;11.974;2024-03-22T00:10:27;7.70;99.90
9971;DHT22;5026;51.494;11.974;2024-03-22T00:12:53;8.70;99.90
9971;DHT22;5026;51.494;11.974;2024-03-22T00:15:20;8.50;99.90
9971;DHT22;5026;51.494;11.974;2024-03-22T00:17:46;7.80;99.90
9971;DHT22;5026;51.494;11.974;2024-03-22T00:20:14;7.70;99.90
9971;DHT22;5026;51.494;11.974;2024-03-22T00:22:40;7.80;99.90
9971;DHT22;5026;51.494;11.974;2024-03-22T00:25:08;7.80;99.90
9971;DHT22;5026;51.494;11.974;2024-03-22T00:27:33;7.80;99.90
9971;DHT22;5026;51.494;11.974;2024-03-22T00:30:00;7.80;99.90
9971;DHT22;5026;51.494;11.974;2024-03-22T00:32:26;7.80;99.90
9971;DHT22;5026;51.494;11.974;2024-03-22T00:34:53;7.80;99.90
9971;DHT22;5026;51.494;11.974;2024-03-22T00:37:21;7.80;99.90
9971;DHT22;5026;51.494;11.974;2024-03-22T00:39:47;7.80;99.90
9971;DHT22;5026;51.494;11.974;2024-03-22T00:42:13;7.90;99.90
9971;DHT22;5026;51.494;11.974;2024-03-22T00:44:40;7.80;99.90
9971;DHT22;5026;51.494;11.974;2024-03-22T00:47:06;7.70;99.90
9971;DHT22;5026;51.494;11.974;2024-03-22T00:49:33;7.70;99.90
9971;DHT22;5026;51.494;11.974;2024-03-22T00:52:00;7.70;99.90
9971;DHT22;5026;51.494;11.974;2024-03-22T00:54:28;7.80;99.90
9971;DHT22;5026;51.494;11.974;2024-03-22T00:56:54;7.90;99.90
9971;DHT22;5026;51.494;11.974;2024-03-22T00:59:21;7.70;99.90
9971;DHT22;5026;51.494;11.974;2024-03-22T01:01:47;7.70;99.90
9971;DHT22;5026;51.494;11.974;2024-03-22T01:04:14;8.20;99.90
9971;DHT22;5026;51.494;11.974;2024-03-22T01:06:40;7.70;99.90
9971;DHT22;5026;51.494;11.974;2024-03-22T01:09:07;8.40;99.90
9971;DHT22;5026;51.494;11.974;2024-03-22T01:11:34;7.70;99.90
9971;DHT22;5026;51.494;11.974;2024-03-22T01:14:01;7.80;99.90
9971;DHT22;5026;51.494;11.974;2024-03-22T01:16:28;7.80;99.90
9971;DHT22;5026;51.494;11.974;2024-03-22T01:18:54;7.70;99.90
9971;DHT22;5026;51.494;11.974;2024-03-22T01:21:21;8.80;99.90
9971;DHT22;5026;51.494;11.974;2024-03-22T01:23:50;7.70;99.90
9971;DHT22;5026;51.494;11.974;2024-03-22T01:26:17;7.70;99.90
9971;DHT22;5026;51.494;11.974;2024-03-22T01:28:46;7.70;99.90
9971;DHT22;5026;51.494;11.974;2024-03-22T01:31:13;7.60;99.90
9971;DHT22;5026;51.494;11.974;2024-03-22T01:33:39;7.70;99.90
9971;DHT22;5026;51.494;11.974;2024-03-22T01:36:06;7.60;99.90
9971;DHT22;5026;51.494;11.974;2024-03-22T01:38:32;7.50;99.90
9971;DHT22;5026;51.494;11.974;2024-03-22T01:40:59;7.50;99.90
9971;DHT22;5026;51.494;11.974;2024-03-22T01:43:25;7.60;99.90
9971;DHT22;5026;51.494;11.974;2024-03-22T01:45:54;7.60;99.90
9971;DHT22;5026;51.494;11.974;2024-03-22T01:48:20;7.50;99.90
9971;DHT22;5026;51.494;11.974;2024-03-22T01:50:47;7.60;99.90
9971;DHT22;5026;51.494;11.974;2024-03-22T01:53:13;7.50;99.90
9971;DHT22;5026;51.494;11.974;2024-03-22T01:55:40;7.50;99.90
9971;DHT22;5026;51.494;11.974;2024-03-22T01:58:06;7.40;99.90
9971;DHT22;5026;51.494;11.974;2024-03-22T02:00:33;7.40;99.90
9971;DHT22;5026;51.494;11.974;2024-03-22T02:03:00;7.30;99.90
9971;DHT22;5026;51.494;11.974;2024-03-22T02:05:28;7.50;99.90
9971;DHT22;5026;51.494;11.974;2024-03-22T02:07:54;7.20;99.90
9971;DHT22;5026;51.494;11.974;2024-03-22T02:10:21;7.20;99.90
9971;DHT22;5026;51.494;11.974;2024-03-22T02:12:47;7.20;99.90
9971;DHT22;5026;51.494;11.974;2024-03-22T02:15:13;7.20;99.90
9971;DHT22;5026;51.494;11.974;2024-03-22T02:17:39;7.30;99.90
9971;DHT22;5026;51.494;11.974;2024-03-22T02:20:10;7.80;99.90
9971;DHT22;5026;51.494;11.974;2024-03-22T02:22:38;7.40;99.90
9971;DHT22;5026;51.494;11.974;2024-03-22T02:25:07;7.60;99.90
9971;DHT22;5026;51.494;11.974;2024-03-22T02:27:33;7.50;99.90
9971;DHT22;5026;51.494;11.974;2024-03-22T02:30:00;7.60;99.90
9971;DHT22;5026;51.494;11.974;2024-03-22T02:32:28;7.90;99.90
9971;DHT22;5026;51.494;11.974;2024-03-22T02:34:54;7.90;99.90
9971;DHT22;5026;51.494;11.974;2024-03-22T02:37:20;7.90;99.90
9971;DHT22;5026;51.494;11.974;2024-03-22T02:39:47;7.90;99.90
9971;DHT22;5026;51.494;11.974;2024-03-22T02:42:15;7.80;99.90
9971;DHT22;5026;51.494;11.974;2024-03-22T02:44:41;7.80;99.90
9971;DHT22;5026;51.494;11.974;2024-03-22T02:47:08;7.90;99.90
9971;DHT22;5026;51.494;11.974;2024-03-22T02:49:35;7.90;99.90
9971;DHT22;5026;51.494;11.974;2024-03-22T02:52:01;7.90;99.90
9971;DHT22;5026;51.494;11.974;2024-03-22T02:54:28;8.00;99.90
9971;DHT22;5026;51.494;11.974;2024-03-22T02:56:54;8.00;99.90
9971;DHT22;5026;51.494;11.974;2024-03-22T02:59:25;8.00;99.90
9971;DHT22;5026;51.494;11.974;2024-03-22T03:01:51;8.00;99.90
9971;DHT22;5026;51.494;11.974;2024-03-22T03:04:18;8.00;99.90
9971;DHT22;5026;51.494;11.974;2024-03-22T03:06:44;8.10;99.90
9971;DHT22;5026;51.494;11.974;2024-03-22T03:09:11;8.10;99.90
9971;DHT22;5026;51.494;11.974;2024-03-22T03:11:38;8.10;99.90
9971;DHT22;5026;51.494;11.974;2024-03-22T03:14:05;8.10;99.90
9971;DHT22;5026;51.494;11.974;2024-03-22T03:16:32;8.30;99.90
9971;DHT22;5026;51.494;11.974;2024-03-22T03:18:59;8.40;99.90
9971;DHT22;5026;51.494;11.974;2024-03-22T03:21:25;8.40;99.90
9971;DHT22;5026;51.494;11.974;2024-03-22T03:23:52;8.30;99.90
9971;DHT22;5026;51.494;11.974;2024-03-22T03:26:18;8.30;99.90
9971;DHT22;5026;51.494;11.974;2024-03-22T03:28:45;8.20;99.90
9971;DHT22;5026;51.494;11.974;2024-03-22T03:31:11;8.20;99.90
9971;DHT22;5026;51.494;11.974;2024-03-22T03:33:39;8.40;99.90
9971;DHT22;5026;51.494;11.974;2024-03-22T03:36:05;8.30;99.90
9971;DHT22;5026;51.494;11.974;2024-03-22T03:38:32;8.30;99.90
9971;DHT22;5026;51.494;11.974;2024-03-22T03:40:58;8.40;99.90
9971;DHT22;5026;51.494;11.974;2024-03-22T03:43:25;8.40;99.90
9971;DHT22;5026;51.494;11.974;2024-03-22T03:45:50;8.40;99.90
9971;DHT22;5026;51.494;11.974;2024-03-22T03:48:19;8.40;99.90
9971;DHT22;5026;51.494;11.974;2024-03-22T03:50:52;8.50;99.90
9971;DHT22;5026;51.494;11.974;2024-03-22T03:53:20;8.40;99.90
9971;DHT22;5026;51.494;11.974;2024-03-22T03:55:46;8.40;99.90
9971;DHT22;5026;51.494;11.974;2024-03-22T03:58:13;8.40;99.90
9971;DHT22;5026;51.494;11.974;2024-03-22T04:00:39;8.40;99.90
9971;DHT22;5026;51.494;11.974;2024-03-22T04:03:05;8.40;99.90
9971;DHT22;5026;51.494;11.974;2024-03-22T04:05:31;8.40;99.90
9971;DHT22;5026;51.494;11.974;2024-03-22T04:08:00;8.40;99.90
9971;DHT22;5026;51.494;11.974;2024-03-22T04:10:26;8.40;99.90
9971;DHT22;5026;51.494;11.974;2024-03-22T04:12:52;8.50;99.90
9971;DHT22;5026;51.494;11.974;2024-03-22T04:15:18;8.30;99.90
9971;DHT22;5026;51.494;11.974;2024-03-22T04:17:45;8.40;99.90
9971;DHT22;5026;51.494;11.974;2024-03-22T04:20:11;8.80;99.90
9971;DHT22;5026;51.494;11.974;2024-03-22T04:22:38;8.70;99.90
9971;DHT22;5026;51.494;11.974;2024-03-22T04:25:06;8.60;99.90
9971;DHT22;5026;51.494;11.974;2024-03-22T04:27:36;8.50;99.90
9971;DHT22;5026;51.494;11.974;2024-03-22T04:30:02;8.50;99.90
9971;DHT22;5026;51.494;11.974;2024-03-22T04:32:30;8.40;99.90
9971;DHT22;5026;51.494;11.974;2024-03-22T04:34:56;8.40;99.90
9971;DHT22;5026;51.494;11.974;2024-03-22T04:37:23;8.40;99.90
9971;DHT22;5026;51.494;11.974;2024-03-22T04:39:50;8.40;99.90
9971;DHT22;5026;51.494;11.974;2024-03-22T04:42:19;8.50;99.90
9971;DHT22;5026;51.494;11.974;2024-03-22T04:44:47;8.40;99.90
9971;DHT22;5026;51.494;11.974;2024-03-22T04:47:13;8.60;99.90
9971;DHT22;5026;51.494;11.974;2024-03-22T04:49:39;9.10;99.90
9971;DHT22;5026;51.494;11.974;2024-03-22T04:52:06;8.60;99.90
9971;DHT22;5026;51.494;11.974;2024-03-22T04:54:32;8.50;99.90
9971;DHT22;5026;51.494;11.974;2024-03-22T04:56:59;8.60;99.90
9971;DHT22;5026;51.494;11.974;2024-03-22T04:59:29;8.70;99.90
9971;DHT22;5026;51.494;11.974;2024-03-22T05:01:55;8.70;99.90
9971;DHT22;5026;51.494;11.974;2024-03-22T05:04:23;8.60;99.90
9971;DHT22;5026;51.494;11.974;2024-03-22T05:06:49;8.60;99.90
9971;DHT22;5026;51.494;11.974;2024-03-22T05:09:16;8.60;99.90
9971;DHT22;5026;51.494;11.974;2024-03-22T05:11:42;8.60;99.90
9971;DHT22;5026;51.494;11.974;2024-03-22T05:14:12;8.50;99.90
9971;DHT22;5026;51.494;11.974;2024-03-22T05:16:39;8.50;99.90
9971;DHT22;5026;51.494;11.974;2024-03-22T05:19:06;8.50;99.90
9971;DHT22;5026;51.494;11.974;2024-03-22T05:21:32;8.60;99.90
9971;DHT22;5026;51.494;11.974;2024-03-22T05:24:00;8.70;99.90
9971;DHT22;5026;51.494;11.974;2024-03-22T05:26:26;8.60;99.90
9971;DHT22;5026;51.494;11.974;2024-03-22T05:28:52;8.70;99.90
9971;DHT22;5026;51.494;11.974;2024-03-22T05:31:18;8.90;99.90
9971;DHT22;5026;51.494;11.974;2024-03-22T05:33:47;8.70;99.90
9971;DHT22;5026;51.494;11.974;2024-03-22T05:36:13;8.80;99.90
9971;DHT22;5026;51.494;11.974;2024-03-22T05:38:40;8.80;99.90
9971;DHT22;5026;51.494;11.974;2024-03-22T05:41:06;8.80;99.90
9971;DHT22;5026;51.494;11.974;2024-03-22T05:43:33;8.80;99.90
9971;DHT22;5026;51.494;11.974;2024-03-22T05:45:59;8.90;99.90
9971;DHT22;5026;51.494;11.974;2024-03-22T05:48:25;8.90;99.90
9971;DHT22;5026;51.494;11.974;2024-03-22T05:50:53;9.00;99.90
9971;DHT22;5026;51.494;11.974;2024-03-22T05:53:20;9.00;99.90
9971;DHT22;5026;51.494;11.974;2024-03-22T05:55:46;9.20;99.90
9971;DHT22;5026;51.494;11.974;2024-03-22T05:58:13;11.10;99.90
9971;DHT22;5026;51.494;11.974;2024-03-22T06:00:39;9.40;99.90
9971;DHT22;5026;51.494;11.974;2024-03-22T06:03:06;9.60;99.90
9971;DHT22;5026;51.494;11.974;2024-03-22T06:05:33;9.50;99.90
9971;DHT22;5026;51.494;11.974;2024-03-22T06:08:02;9.60;99.90
9971;DHT22;5026;51.494;11.974;2024-03-22T06:10:29;9.70;99.90
9971;DHT22;5026;51.494;11.974;2024-03-22T06:12:56;9.80;99.90
9971;DHT22;5026;51.494;11.974;2024-03-22T06:15:22;9.80;99.90
9971;DHT22;5026;51.494;11.974;2024-03-22T06:17:49;9.90;99.90
9971;DHT22;5026;51.494;11.974;2024-03-22T06:20:16;9.90;99.90
9971;DHT22;5026;51.494;11.974;2024-03-22T06:22:43;10.00;99.90
9971;DHT22;5026;51.494;11.974;2024-03-22T06:25:10;10.10;99.90
9971;DHT22;5026;51.494;11.974;2024-03-22T06:27:37;10.20;99.90
9971;DHT22;5026;51.494;11.974;2024-03-22T06:30:03;10.10;99.90
9971;DHT22;5026;51.494;11.974;2024-03-22T06:32:30;10.20;99.90
9971;DHT22;5026;51.494;11.974;2024-03-22T06:34:56;10.30;99.90
9971;DHT22;5026;51.494;11.974;2024-03-22T06:37:23;10.90;99.90
9971;DHT22;5026;51.494;11.974;2024-03-22T06:39:49;10.40;99.90
9971;DHT22;5026;51.494;11.974;2024-03-22T06:42:17;10.50;99.90
9971;DHT22;5026;51.494;11.974;2024-03-22T06:44:43;11.30;99.90
9971;DHT22;5026;51.494;11.974;2024-03-22T06:47:10;10.70;99.90
9971;DHT22;5026;51.494;11.974;2024-03-22T06:49:36;10.90;99.90
9971;DHT22;5026;51.494;11.974;2024-03-22T06:52:03;10.90;99.90
9971;DHT22;5026;51.494;11.974;2024-03-22T06:54:29;10.90;99.90
9971;DHT22;5026;51.494;11.974;2024-03-22T06:56:57;11.00;99.90
9971;DHT22;5026;51.494;11.974;2024-03-22T06:59:24;11.10;99.90
9971;DHT22;5026;51.494;11.974;2024-03-22T07:01:52;10.90;99.90
9971;DHT22;5026;51.494;11.974;2024-03-22T07:04:18;11.00;99.90
9971;DHT22;5026;51.494;11.974;2024-03-22T07:06:44;10.90;99.90
9971;DHT22;5026;51.494;11.974;2024-03-22T07:09:10;11.00;99.90
9971;DHT22;5026;51.494;11.974;2024-03-22T07:11:37;11.00;99.90
9971;DHT22;5026;51.494;11.974;2024-03-22T07:14:03;11.10;99.90
9971;DHT22;5026;51.494;11.974;2024-03-22T07:16:31;11.10;99.90
9971;DHT22;5026;51.494;11.974;2024-03-22T07:18:57;11.30;99.90
9971;DHT22;5026;51.494;11.974;2024-03-22T07:21:24;11.40;99.90
9971;DHT22;5026;51.494;11.974;2024-03-22T07:23:50;11.40;99.90
9971;DHT22;5026;51.494;11.974;2024-03-22T07:26:17;11.60;99.90
9971;DHT22;5026;51.494;11.974;2024-03-22T07:28:43;11.70;99.90
9971;DHT22;5026;51.494;11.974;2024-03-22T07:31:10;11.90;99.90
9971;DHT22;5026;51.494;11.974;2024-03-22T07:33:37;12.10;99.90
9971;DHT22;5026;51.494;11.974;2024-03-22T07:36:05;12.40;99.90
9971;DHT22;5026;51.494;11.974;2024-03-22T07:38:31;12.40;99.90
9971;DHT22;5026;51.494;11.974;2024-03-22T07:40:58;12.50;99.90
9971;DHT22;5026;51.494;11.974;2024-03-22T07:43:24;12.60;99.90
9971;DHT22;5026;51.494;11.974;2024-03-22T07:45:51;12.80;99.90
9971;DHT22;5026;51.494;11.974;2024-03-22T07:48:16;13.00;99.90
9971;DHT22;5026;51.494;11.974;2024-03-22T07:50:45;13.20;99.90
9971;DHT22;5026;51.494;11.974;2024-03-22T07:53:11;13.40;99.90
9971;DHT22;5026;51.494;11.974;2024-03-22T07:55:39;14.80;99.90
9971;DHT22;5026;51.494;11.974;2024-03-22T07:58:06;13.60;99.90
9971;DHT22;5026;51.494;11.974;2024-03-22T08:00:32;13.50;99.90
9971;DHT22;5026;51.494;11.974;2024-03-22T08:02:59;13.50;99.90
9971;DHT22;5026;51.494;11.974;2024-03-22T08:05:25;13.30;99.90
9971;DHT22;5026;51.494;11.974;2024-03-22T08:07:53;13.50;99.90
9971;DHT22;5026;51.494;11.974;2024-03-22T08:10:20;13.70;99.90
9971;DHT22;5026;51.494;11.974;2024-03-22T08:12:47;13.80;99.90
9971;DHT22;5026;51.494;11.974;2024-03-22T08:15:13;13.90;99.90
9971;DHT22;5026;51.494;11.974;2024-03-22T08:17:40;13.90;99.90
9971;DHT22;5026;51.494;11.974;2024-03-22T08:20:07;14.20;99.90
9971;DHT22;5026;51.494;11.974;2024-03-22T08:22:34;13.90;99.90
9971;DHT22;5026;51.494;11.974;2024-03-22T08:25:01;13.80;99.90
9971;DHT22;5026;51.494;11.974;2024-03-22T08:27:29;13.60;99.90
9971;DHT22;5026;51.494;11.974;2024-03-22T08:29:55;13.60;99.90
9971;DHT22;5026;51.494;11.974;2024-03-22T08:32:22;13.50;99.90
9971;DHT22;5026;51.494;11.974;2024-03-22T08:34:48;13.50;99.90
9971;DHT22;5026;51.494;11.974;2024-03-22T08:37:15;13.70;99.90
9971;DHT22;5026;51.494;11.974;2024-03-22T08:39:41;13.90;99.90
9971;DHT22;5026;51.494;11.974;2024-03-22T08:42:09;14.00;99.90
9971;DHT22;5026;51.494;11.974;2024-03-22T08:44:35;14.10;99.90
9971;DHT22;5026;51.494;11.974;2024-03-22T08:47:02;14.10;99.90
9971;DHT22;5026;51.494;11.974;2024-03-22T08:49:28;14.10;99.90
9971;DHT22;5026;51.494;11.974;2024-03-22T08:51:55;14.20;99.90
9971;DHT22;5026;51.494;11.974;2024-03-22T08:54:21;14.10;99.80
9971;DHT22;5026;51.494;11.974;2024-03-22T08:56:48;14.20;99.80
9971;DHT22;5026;51.494;11.974;2024-03-22T08:59:15;14.20;99.80
9971;DHT22;5026;51.494;11.974;2024-03-22T09:01:42;14.10;99.80
9971;DHT22;5026;51.494;11.974;2024-03-22T09:04:08;14.20;99.70
9971;DHT22;5026;51.494;11.974;2024-03-22T09:06:35;14.20;99.70
9971;DHT22;5026;51.494;11.974;2024-03-22T09:09:01;14.10;99.80
9971;DHT22;5026;51.494;11.974;2024-03-22T09:11:32;14.00;99.60
9971;DHT22;5026;51.494;11.974;2024-03-22T09:13:58;14.10;99.90
9971;DHT22;5026;51.494;11.974;2024-03-22T09:16:26;14.20;99.70
9971;DHT22;5026;51.494;11.974;2024-03-22T09:18:52;14.30;99.60
9971;DHT22;5026;51.494;11.974;2024-03-22T09:21:19;14.50;99.50
9971;DHT22;5026;51.494;11.974;2024-03-22T09:23:45;14.70;99.40
9971;DHT22;5026;51.494;11.974;2024-03-22T09:26:12;14.80;99.40
9971;DHT22;5026;51.494;11.974;2024-03-22T09:28:38;14.90;99.40
9971;DHT22;5026;51.494;11.974;2024-03-22T09:31:05;15.00;99.10
9971;DHT22;5026;51.494;11.974;2024-03-22T09:33:33;16.40;99.50
9971;DHT22;5026;51.494;11.974;2024-03-22T09:36:01;15.50;99.00
9971;DHT22;5026;51.494;11.974;2024-03-22T09:38:27;15.70;98.70
9971;DHT22;5026;51.494;11.974;2024-03-22T09:40:55;15.90;98.70
9971;DHT22;5026;51.494;11.974;2024-03-22T09:43:21;15.80;98.50
9971;DHT22;5026;51.494;11.974;2024-03-22T09:45:49;15.90;98.60
9971;DHT22;5026;51.494;11.974;2024-03-22T09:48:16;15.90;98.40
9971;DHT22;5026;51.494;11.974;2024-03-22T09:50:46;16.10;98.40
9971;DHT22;5026;51.494;11.974;2024-03-22T09:53:13;16.10;98.30
9971;DHT22;5026;51.494;11.974;2024-03-22T09:55:40;17.40;98.70
9971;DHT22;5026;51.494;11.974;2024-03-22T09:58:09;16.20;98.20
9971;DHT22;5026;51.494;11.974;2024-03-22T10:00:36;16.20;98.40
9971;DHT22;5026;51.494;11.974;2024-03-22T10:03:03;16.10;98.20
9971;DHT22;5026;51.494;11.974;2024-03-22T10:05:30;16.10;98.20
9971;DHT22;5026;51.494;11.974;2024-03-22T10:07:58;16.00;98.30
9971;DHT22;5026;51.494;11.974;2024-03-22T10:10:25;16.10;98.20
9971;DHT22;5026;51.494;11.974;2024-03-22T10:12:51;16.30;98.10
9971;DHT22;5026;51.494;11.974;2024-03-22T10:15:19;16.50;97.90
9971;DHT22;5026;51.494;11.974;2024-03-22T10:17:45;16.70;97.60
9971;DHT22;5026;51.494;11.974;2024-03-22T10:20:13;16.80;97.70
9971;DHT22;5026;51.494;11.974;2024-03-22T10:22:42;16.90;97.50
9971;DHT22;5026;51.494;11.974;2024-03-22T10:25:10;17.20;97.30
9971;DHT22;5026;51.494;11.974;2024-03-22T10:27:38;17.30;97.10
9971;DHT22;5026;51.494;11.974;2024-03-22T10:30:07;17.30;97.00
9971;DHT22;5026;51.494;11.974;2024-03-22T10:32:34;17.60;96.90
9971;DHT22;5026;51.494;11.974;2024-03-22T10:35:02;17.70;96.70
9971;DHT22;5026;51.494;11.974;2024-03-22T10:37:32;17.70;96.60
9971;DHT22;5026;51.494;11.974;2024-03-22T10:40:01;17.60;96.40
9971;DHT22;5026;51.494;11.974;2024-03-22T10:42:35;17.60;96.40
9971;DHT22;5026;51.494;11.974;2024-03-22T10:45:02;17.50;96.30
9971;DHT22;5026;51.494;11.974;2024-03-22T10:47:30;17.40;96.20
9971;DHT22;5026;51.494;11.974;2024-03-22T10:50:04;17.00;96.30
9971;DHT22;5026;51.494;11.974;2024-03-22T10:52:31;16.80;96.30
9971;DHT22;5026;51.494;11.974;2024-03-22T10:55:00;16.80;96.30
9971;DHT22;5026;51.494;11.974;2024-03-22T10:57:27;16.70;96.40
9971;DHT22;5026;51.494;11.974;2024-03-22T10:59:56;16.90;96.40
9971;DHT22;5026;51.494;11.974;2024-03-22T11:02:24;16.90;96.20
9971;DHT22;5026;51.494;11.974;2024-03-22T11:04:56;17.00;96.20
9971;DHT22;5026;51.494;11.974;2024-03-22T11:07:22;17.30;96.20
9971;DHT22;5026;51.494;11.974;2024-03-22T11:09:56;17.20;96.00
9971;DHT22;5026;51.494;11.974;2024-03-22T11:12:24;17.20;96.10
9971;DHT22;5026;51.494;11.974;2024-03-22T11:14:53;17.10;96.00
9971;DHT22;5026;51.494;11.974;2024-03-22T11:17:20;17.00;96.20
9971;DHT22;5026;51.494;11.974;2024-03-22T11:19:50;17.20;96.10
9971;DHT22;5026;51.494;11.974;2024-03-22T11:22:16;17.40;96.00
9971;DHT22;5026;51.494;11.974;2024-03-22T11:24:43;17.70;95.90
9971;DHT22;5026;51.494;11.974;2024-03-22T11:27:09;18.00;95.90
9971;DHT22;5026;51.494;11.974;2024-03-22T11:29:37;18.00;95.40
9971;DHT22;5026;51.494;11.974;2024-03-22T11:32:06;17.80;95.40
9971;DHT22;5026;51.494;11.974;2024-03-22T11:34:37;17.50;95.50
9971;DHT22;5026;51.494;11.974;2024-03-22T11:37:04;17.40;95.70
9971;DHT22;5026;51.494;11.974;2024-03-22T11:39:32;17.30;95.80
9971;DHT22;5026;51.494;11.974;2024-03-22T11:42:00;17.30;95.80
9971;DHT22;5026;51.494;11.974;2024-03-22T11:44:28;17.00;95.90
9971;DHT22;5026;51.494;11.974;2024-03-22T11:46:55;17.00;96.00
9971;DHT22;5026;51.494;11.974;2024-03-22T11:49:22;17.20;96.10
9971;DHT22;5026;51.494;11.974;2024-03-22T11:51:51;17.40;96.00
9971;DHT22;5026;51.494;11.974;2024-03-22T11:54:19;17.50;95.90
9971;DHT22;5026;51.494;11.974;2024-03-22T11:56:45;17.70;95.80
9971;DHT22;5026;51.494;11.974;2024-03-22T11:59:12;17.80;95.70
9971;DHT22;5026;51.494;11.974;2024-03-22T12:01:38;17.70;95.70
9971;DHT22;5026;51.494;11.974;2024-03-22T12:04:07;17.80;95.60
9971;DHT22;5026;51.494;11.974;2024-03-22T12:06:34;17.70;95.50
9971;DHT22;5026;51.494;11.974;2024-03-22T12:09:02;17.70;95.60
9971;DHT22;5026;51.494;11.974;2024-03-22T12:11:29;17.90;95.60
9971;DHT22;5026;51.494;11.974;2024-03-22T12:13:56;18.00;95.50
9971;DHT22;5026;51.494;11.974;2024-03-22T12:16:22;18.10;95.50
9971;DHT22;5026;51.494;11.974;2024-03-22T12:18:49;17.90;95.50
9971;DHT22;5026;51.494;11.974;2024-03-22T12:21:15;17.70;95.50
9971;DHT22;5026;51.494;11.974;2024-03-22T12:23:41;17.50;95.60
9971;DHT22;5026;51.494;11.974;2024-03-22T12:26:09;17.50;95.60
9971;DHT22;5026;51.494;11.974;2024-03-22T12:28:36;17.70;95.70
9971;DHT22;5026;51.494;11.974;2024-03-22T12:31:02;17.80;95.80
9971;DHT22;5026;51.494;11.974;2024-03-22T12:33:28;17.90;95.90
9971;DHT22;5026;51.494;11.974;2024-03-22T12:35:54;18.00;96.10
9971;DHT22;5026;51.494;11.974;2024-03-22T12:38:21;17.90;96.10
9971;DHT22;5026;51.494;11.974;2024-03-22T12:40:47;18.10;96.10
9971;DHT22;5026;51.494;11.974;2024-03-22T12:43:16;18.00;95.80
9971;DHT22;5026;51.494;11.974;2024-03-22T12:45:42;17.80;95.80
9971;DHT22;5026;51.494;11.974;2024-03-22T12:48:09;17.70;96.10
9971;DHT22;5026;51.494;11.974;2024-03-22T12:50:35;17.90;96.30
9971;DHT22;5026;51.494;11.974;2024-03-22T12:53:03;18.00;96.40
9971;DHT22;5026;51.494;11.974;2024-03-22T12:55:30;18.10;96.50
9971;DHT22;5026;51.494;11.974;2024-03-22T12:57:57;18.20;96.40
9971;DHT22;5026;51.494;11.974;2024-03-22T13:00:24;18.20;96.30
9971;DHT22;5026;51.494;11.974;2024-03-22T13:02:51;18.10;96.50
9971;DHT22;5026;51.494;11.974;2024-03-22T13:05:17;18.10;96.50
9971;DHT22;5026;51.494;11.974;2024-03-22T13:07:44;17.80;96.50
9971;DHT22;5026;51.494;11.974;2024-03-22T13:10:10;17.80;96.60
9971;DHT22;5026;51.494;11.974;2024-03-22T13:12:37;17.90;96.60
9971;DHT22;5026;51.494;11.974;2024-03-22T13:15:04;17.80;96.80
9971;DHT22;5026;51.494;11.974;2024-03-22T13:17:34;17.90;96.80
9971;DHT22;5026;51.494;11.974;2024-03-22T13:20:00;17.90;96.80
9971;DHT22;5026;51.494;11.974;2024-03-22T13:22:28;17.90;96.70
9971;DHT22;5026;51.494;11.974;2024-03-22T13:24:54;17.90;96.70
9971;DHT22;5026;51.494;11.974;2024-03-22T13:27:21;17.90;96.60
9971;DHT22;5026;51.494;11.974;2024-03-22T13:29:48;17.80;96.50
9971;DHT22;5026;51.494;11.974;2024-03-22T13:32:15;17.90;96.50
9971;DHT22;5026;51.494;11.974;2024-03-22T13:34:42;17.80;96.60
9971;DHT22;5026;51.494;11.974;2024-03-22T13:37:10;17.80;96.40
9971;DHT22;5026;51.494;11.974;2024-03-22T13:39:36;17.80;96.40
9971;DHT22;5026;51.494;11.974;2024-03-22T13:42:03;17.70;96.40
9971;DHT22;5026;51.494;11.974;2024-03-22T13:44:31;17.70;96.30
9971;DHT22;5026;51.494;11.974;2024-03-22T13:46:58;17.70;96.40
9971;DHT22;5026;51.494;11.974;2024-03-22T13:49:24;17.60;96.40
9971;DHT22;5026;51.494;11.974;2024-03-22T13:51:53;17.60;96.40
9971;DHT22;5026;51.494;11.974;2024-03-22T13:54:19;17.50;96.40
9971;DHT22;5026;51.494;11.974;2024-03-22T13:56:46;17.40;96.60
9971;DHT22;5026;51.494;11.974;2024-03-22T13:59:11;17.30;96.90
9971;DHT22;5026;51.494;11.974;2024-03-22T14:01:40;17.40;96.90
9971;DHT22;5026;51.494;11.974;2024-03-22T14:04:07;17.30;96.90
9971;DHT22;5026;51.494;11.974;2024-03-22T14:06:37;17.30;97.00
9971;DHT22;5026;51.494;11.974;2024-03-22T14:09:04;17.20;97.10
9971;DHT22;5026;51.494;11.974;2024-03-22T14:11:36;17.10;97.20
9971;DHT22;5026;51.494;11.974;2024-03-22T14:14:02;17.00;97.40
9971;DHT22;5026;51.494;11.974;2024-03-22T14:16:29;16.90;97.70
9971;DHT22;5026;51.494;11.974;2024-03-22T14:18:56;16.90;97.90
9971;DHT22;5026;51.494;11.974;2024-03-22T14:21:23;16.80;98.10
9971;DHT22;5026;51.494;11.974;2024-03-22T14:23:49;16.60;98.40
9971;DHT22;5026;51.494;11.974;2024-03-22T14:26:18;16.60;98.50
9971;DHT22;5026;51.494;11.974;2024-03-22T14:28:44;16.50;98.80
9971;DHT22;5026;51.494;11.974;2024-03-22T14:31:13;16.60;98.90
9971;DHT22;5026;51.494;11.974;2024-03-22T14:33:39;16.60;99.00
9971;DHT22;5026;51.494;11.974;2024-03-22T14:36:07;16.60;99.10
9971;DHT22;5026;51.494;11.974;2024-03-22T14:38:35;16.60;99.10
9971;DHT22;5026;51.494;11.974;2024-03-22T14:41:01;16.70;99.30
9971;DHT22;5026;51.494;11.974;2024-03-22T14:43:29;16.70;99.20
9971;DHT22;5026;51.494;11.974;2024-03-22T14:45:56;16.70;99.50
9971;DHT22;5026;51.494;11.974;2024-03-22T14:48:24;16.60;99.60
9971;DHT22;5026;51.494;11.974;2024-03-22T14:50:50;16.60;99.60
9971;DHT22;5026;51.494;11.974;2024-03-22T14:53:19;16.60;99.70
9971;DHT22;5026;51.494;11.974;2024-03-22T14:55:52;16.60;99.80
9971;DHT22;5026;51.494;11.974;2024-03-22T14:58:20;16.70;99.90
9971;DHT22;5026;51.494;11.974;2024-03-22T15:00:55;16.60;99.90
9971;DHT22;5026;51.494;11.974;2024-03-22T15:03:22;16.60;99.90
9971;DHT22;5026;51.494;11.974;2024-03-22T15:05:49;16.50;99.90
9971;DHT22;5026;51.494;11.974;2024-03-22T15:08:17;16.50;99.90
9971;DHT22;5026;51.494;11.974;2024-03-22T15:10:42;16.40;99.90
9971;DHT22;5026;51.494;11.974;2024-03-22T15:13:10;16.30;99.90
9971;DHT22;5026;51.494;11.974;2024-03-22T15:15:37;16.30;99.90
9971;DHT22;5026;51.494;11.974;2024-03-22T15:18:06;16.20;99.90
9971;DHT22;5026;51.494;11.974;2024-03-22T15:20:33;16.20;99.90
9971;DHT22;5026;51.494;11.974;2024-03-22T15:22:59;16.20;99.90
9971;DHT22;5026;51.494;11.974;2024-03-22T15:25:26;16.20;99.90
9971;DHT22;5026;51.494;11.974;2024-03-22T15:27:52;16.10;99.90
9971;DHT22;5026;51.494;11.974;2024-03-22T15:30:19;16.00;99.90
9971;DHT22;5026;51.494;11.974;2024-03-22T15:32:45;16.00;99.90
9971;DHT22;5026;51.494;11.974;2024-03-22T15:35:14;16.00;99.90
9971;DHT22;5026;51.494;11.974;2024-03-22T15:37:40;16.00;99.90
9971;DHT22;5026;51.494;11.974;2024-03-22T15:40:08;15.90;99.90
9971;DHT22;5026;51.494;11.974;2024-03-22T15:42:34;15.80;99.90
9971;DHT22;5026;51.494;11.974;2024-03-22T15:45:01;15.70;99.90
9971;DHT22;5026;51.494;11.974;2024-03-22T15:47:29;15.60;99.90
9971;DHT22;5026;51.494;11.974;2024-03-22T15:49:56;15.50;99.90